Terminal Aerodrome Forecast
Issued by NWS

Home | Current Version | Previous Version | Text Only | Print | Product List | Glossary On
Versions: 1 2 3 4 5 6 7 8 9 10 11 12 13
000
FTUS43 KMQT 011132
TAFCMX
TAF
KCMX 011132Z 0112/0212 21007KT P6SM VCSH BKN025
      TEMPO 0112/0114 BKN035
     FM011600 26012G22KT P6SM VCSH BKN015
     FM012000 27013G23KT P6SM BKN035
     FM020100 28010G20KT P6SM VCSH BKN030=

USA.gov is the U.S. government's official web portal to all federal, state and local government web resources and services.